createdAt,value
2024-05-09T00:00:22.053Z,100.00
2024-05-09T00:02:53.129Z,100.00
2024-05-09T00:05:19.918Z,100.00
2024-05-09T00:07:46.743Z,100.00
2024-05-09T00:10:22.337Z,100.00
2024-05-09T00:12:55.774Z,100.00
2024-05-09T00:15:22.442Z,100.00
2024-05-09T00:17:49.385Z,100.00
2024-05-09T00:20:20.632Z,100.00
2024-05-09T00:22:54.552Z,100.00
2024-05-09T00:25:21.246Z,100.00
2024-05-09T00:27:47.850Z,100.00
2024-05-09T00:30:21.442Z,100.00
2024-05-09T00:32:55.243Z,100.00
2024-05-09T00:35:22.213Z,100.00
2024-05-09T00:37:48.994Z,100.00
2024-05-09T00:40:22.925Z,100.00
2024-05-09T00:42:57.577Z,100.00
2024-05-09T00:45:24.271Z,100.00
2024-05-09T00:47:51.263Z,100.00
2024-05-09T00:50:22.862Z,100.00
2024-05-09T00:52:56.809Z,100.00
2024-05-09T00:55:24.014Z,100.00
2024-05-09T00:57:51.188Z,100.00
2024-05-09T01:00:26.680Z,100.00
2024-05-09T01:02:58.687Z,100.00
2024-05-09T01:05:25.511Z,100.00
2024-05-09T01:07:52.252Z,100.00
2024-05-09T01:10:27.455Z,100.00
2024-05-09T01:12:58.781Z,100.00
2024-05-09T01:15:25.442Z,100.00
2024-05-09T01:17:55.555Z,100.00
2024-05-09T01:20:31.841Z,100.00
2024-05-09T01:23:07.271Z,100.00
2024-05-09T01:25:34.064Z,100.00
2024-05-09T01:28:00.959Z,100.00
2024-05-09T01:30:34.094Z,100.00
2024-05-09T01:33:03.719Z,100.00
2024-05-09T01:35:30.739Z,100.00
2024-05-09T01:37:57.567Z,100.00
2024-05-09T01:40:33.530Z,100.00
2024-05-09T01:43:04.852Z,100.00
2024-05-09T01:45:31.743Z,100.00
2024-05-09T01:47:58.788Z,100.00
2024-05-09T01:50:37.004Z,100.00
2024-05-09T01:53:07.763Z,100.00
2024-05-09T01:55:34.585Z,100.00
2024-05-09T01:58:01.355Z,100.00
2024-05-09T02:00:37.944Z,100.00
2024-05-09T02:03:15.943Z,100.00
2024-05-09T02:05:46.360Z,100.00
2024-05-09T02:08:15.816Z,100.00
2024-05-09T02:10:44.738Z,100.00
2024-05-09T02:13:12.016Z,100.00
2024-05-09T02:15:38.681Z,100.00
2024-05-09T02:18:06.058Z,100.00
2024-05-09T02:20:36.447Z,100.00
2024-05-09T02:23:06.164Z,100.00
2024-05-09T02:25:33.553Z,100.00
2024-05-09T02:28:00.226Z,100.00
2024-05-09T02:30:37.685Z,100.00
2024-05-09T02:33:08.384Z,100.00
2024-05-09T02:35:36.031Z,100.00
2024-05-09T02:38:03.125Z,100.00
2024-05-09T02:40:36.658Z,100.00
2024-05-09T02:43:06.461Z,100.00
2024-05-09T02:45:33.534Z,100.00
2024-05-09T02:48:00.759Z,100.00
2024-05-09T02:50:34.569Z,100.00
2024-05-09T02:53:05.955Z,100.00
2024-05-09T02:55:33.035Z,100.00
2024-05-09T02:57:59.888Z,100.00
2024-05-09T03:00:35.072Z,100.00
2024-05-09T03:03:12.596Z,100.00
2024-05-09T03:05:41.751Z,100.00
2024-05-09T03:08:08.875Z,100.00
2024-05-09T03:10:38.011Z,100.00
2024-05-09T03:13:07.391Z,100.00
2024-05-09T03:15:34.266Z,100.00
2024-05-09T03:18:01.589Z,100.00
2024-05-09T03:20:33.874Z,100.00
2024-05-09T03:23:02.866Z,100.00
2024-05-09T03:25:29.696Z,100.00
2024-05-09T03:27:56.664Z,100.00
2024-05-09T03:30:35.858Z,100.00
2024-05-09T03:33:15.439Z,100.00
2024-05-09T03:35:46.526Z,100.00
2024-05-09T03:38:13.516Z,100.00
2024-05-09T03:40:48.196Z,100.00
2024-05-09T03:43:15.793Z,100.00
2024-05-09T03:45:43.194Z,100.00
2024-05-09T03:48:10.257Z,100.00
2024-05-09T03:50:37.600Z,100.00
2024-05-09T03:53:05.213Z,100.00
2024-05-09T03:55:32.194Z,100.00
2024-05-09T03:57:59.180Z,100.00
2024-05-09T04:00:34.400Z,100.00
2024-05-09T04:03:07.266Z,100.00
2024-05-09T04:05:36.828Z,100.00
2024-05-09T04:08:03.787Z,100.00
2024-05-09T04:10:33.731Z,100.00
2024-05-09T04:13:02.369Z,100.00
2024-05-09T04:15:29.323Z,100.00
2024-05-09T04:17:56.412Z,100.00
2024-05-09T04:20:33.810Z,100.00
2024-05-09T04:23:06.242Z,100.00
2024-05-09T04:25:33.343Z,100.00
2024-05-09T04:28:00.116Z,100.00
2024-05-09T04:30:36.008Z,100.00
2024-05-09T04:33:07.459Z,100.00
2024-05-09T04:35:35.748Z,100.00
2024-05-09T04:38:02.692Z,100.00
2024-05-09T04:40:34.113Z,100.00
2024-05-09T04:43:07.188Z,100.00
2024-05-09T04:45:34.265Z,100.00
2024-05-09T04:48:01.655Z,100.00
2024-05-09T04:50:36.324Z,100.00
2024-05-09T04:53:06.997Z,100.00
2024-05-09T04:55:34.602Z,100.00
2024-05-09T04:58:01.814Z,100.00
2024-05-09T05:00:35.768Z,100.00
2024-05-09T05:03:07.438Z,100.00
2024-05-09T05:05:38.202Z,100.00
2024-05-09T05:08:05.768Z,100.00
2024-05-09T05:10:36.239Z,100.00
2024-05-09T05:13:21.072Z,100.00
2024-05-09T05:15:56.418Z,100.00
2024-05-09T05:18:24.740Z,100.00
2024-05-09T05:20:52.112Z,100.00
2024-05-09T05:23:20.510Z,100.00
2024-05-09T05:25:48.834Z,100.00
2024-05-09T05:28:16.297Z,100.00
2024-05-09T05:30:43.082Z,100.00
2024-05-09T05:33:15.279Z,100.00
2024-05-09T05:35:42.745Z,100.00
2024-05-09T05:38:10.508Z,100.00
2024-05-09T05:40:38.705Z,100.00
2024-05-09T05:43:07.374Z,100.00
2024-05-09T05:45:34.067Z,100.00
2024-05-09T05:48:04.043Z,100.00
2024-05-09T05:50:35.914Z,100.00
2024-05-09T05:53:07.063Z,100.00
2024-05-09T05:55:34.486Z,100.00
2024-05-09T05:58:02.195Z,100.00
2024-05-09T06:00:35.403Z,100.00
2024-05-09T06:03:06.131Z,100.00
2024-05-09T06:05:33.118Z,100.00
2024-05-09T06:08:00.236Z,100.00
2024-05-09T06:10:36.983Z,100.00
2024-05-09T06:13:06.417Z,100.00
2024-05-09T06:15:33.051Z,100.00
2024-05-09T06:17:59.896Z,100.00
2024-05-09T06:20:34.845Z,100.00
2024-05-09T06:23:04.685Z,100.00
2024-05-09T06:25:32.090Z,100.00
2024-05-09T06:28:00.393Z,100.00
2024-05-09T06:30:36.555Z,100.00
2024-05-09T06:33:07.807Z,100.00
2024-05-09T06:35:34.996Z,100.00
2024-05-09T06:38:02.027Z,100.00
2024-05-09T06:40:36.862Z,100.00
2024-05-09T06:43:11.025Z,100.00
2024-05-09T06:45:39.661Z,100.00
2024-05-09T06:48:07.375Z,100.00
2024-05-09T06:50:37.872Z,100.00
2024-05-09T06:53:06.092Z,100.00
2024-05-09T06:55:33.022Z,100.00
2024-05-09T06:57:59.674Z,100.00
2024-05-09T07:00:34.647Z,100.00
2024-05-09T07:03:14.386Z,100.00
2024-05-09T07:05:43.711Z,100.00
2024-05-09T07:08:10.760Z,100.00
2024-05-09T07:10:37.839Z,100.00
2024-05-09T07:13:08.979Z,100.00
2024-05-09T07:15:35.744Z,100.00
2024-05-09T07:18:18.334Z,100.00
2024-05-09T07:20:46.714Z,100.00
2024-05-09T07:23:13.884Z,100.00
2024-05-09T07:25:41.432Z,100.00
2024-05-09T07:28:16.126Z,100.00
2024-05-09T07:30:55.098Z,100.00
2024-05-09T07:33:23.700Z,100.00
2024-05-09T07:35:51.447Z,100.00
2024-05-09T07:38:18.397Z,100.00
2024-05-09T07:40:45.225Z,100.00
2024-05-09T07:43:13.109Z,100.00
2024-05-09T07:45:49.814Z,100.00
2024-05-09T07:53:38.902Z,93.14
2024-05-09T07:56:09.422Z,77.27
2024-05-09T07:58:36.665Z,72.20
2024-05-09T08:01:03.593Z,60.33
2024-05-09T08:03:30.738Z,61.97
2024-05-09T08:05:57.455Z,58.53
2024-05-09T08:08:24.071Z,56.98
2024-05-09T08:10:51.313Z,54.28
2024-05-09T08:13:18.089Z,55.98
2024-05-09T08:15:44.966Z,53.35
2024-05-09T08:18:12.018Z,53.26
2024-05-09T08:20:39.915Z,53.65
2024-05-09T08:23:06.972Z,50.83
2024-05-09T08:25:33.663Z,48.67
2024-05-09T08:28:00.426Z,48.35
2024-05-09T08:30:33.542Z,45.41
2024-05-09T08:33:04.998Z,45.50
2024-05-09T08:35:32.638Z,45.64
2024-05-09T08:37:59.416Z,47.68
2024-05-09T08:40:34.052Z,44.57
2024-05-09T08:43:05.725Z,45.54
2024-05-09T08:45:34.768Z,44.16
2024-05-09T08:48:05.880Z,44.35
2024-05-09T08:50:38.735Z,44.93
2024-05-09T08:53:07.317Z,44.13
2024-05-09T08:55:34.064Z,41.64
2024-05-09T08:58:03.592Z,44.91
2024-05-09T09:00:36.815Z,44.68
2024-05-09T09:03:09.356Z,44.03
2024-05-09T09:05:39.260Z,46.98
2024-05-09T09:08:08.213Z,46.53
2024-05-09T09:10:35.427Z,46.28
2024-05-09T09:13:04.667Z,43.62
2024-05-09T09:15:32.051Z,45.00
2024-05-09T09:18:02.278Z,43.41
2024-05-09T09:20:36.294Z,44.27
2024-05-09T09:23:04.321Z,46.96
2024-05-09T09:25:31.476Z,44.92
2024-05-09T09:27:58.880Z,44.87
2024-05-09T09:30:36.302Z,44.86
2024-05-09T09:33:08.818Z,46.71
2024-05-09T09:35:38.517Z,47.54
2024-05-09T09:38:07.193Z,46.63
2024-05-09T09:40:39.061Z,50.42
2024-05-09T09:43:18.425Z,50.21
2024-05-09T09:45:46.575Z,49.55
2024-05-09T09:48:15.320Z,50.19
2024-05-09T09:50:43.236Z,50.41
2024-05-09T09:53:11.450Z,51.69
2024-05-09T09:55:39.771Z,52.17
2024-05-09T09:58:08.789Z,55.17
2024-05-09T10:00:37.872Z,54.77
2024-05-09T10:03:05.351Z,60.28
2024-05-09T10:05:34.291Z,60.24
2024-05-09T10:08:05.675Z,56.38
2024-05-09T10:10:34.173Z,58.02
2024-05-09T10:13:05.129Z,61.50
2024-05-09T10:15:51.262Z,61.18
2024-05-09T10:18:26.118Z,61.30
2024-05-09T10:20:56.077Z,60.43
2024-05-09T10:23:32.423Z,56.98
2024-05-09T10:26:04.816Z,55.85
2024-05-09T10:28:33.544Z,57.64
2024-05-09T10:31:13.793Z,51.99
2024-05-09T10:33:51.850Z,55.52
2024-05-09T10:36:26.602Z,55.25
2024-05-09T10:38:54.594Z,52.18
2024-05-09T10:41:22.619Z,54.73
2024-05-09T10:43:51.088Z,51.72
2024-05-09T10:46:19.276Z,51.93
2024-05-09T10:48:46.918Z,54.82
2024-05-09T10:51:13.943Z,54.70
2024-05-09T10:53:46.015Z,54.93
2024-05-09T10:56:16.611Z,52.30
2024-05-09T10:58:43.599Z,51.57
2024-05-09T11:01:11.126Z,54.76
2024-05-09T11:03:39.100Z,52.40
2024-05-09T11:06:06.791Z,49.19
2024-05-09T11:08:35.106Z,51.53
2024-05-09T11:11:06.760Z,51.76
2024-05-09T11:13:36.049Z,52.47
2024-05-09T11:16:03.986Z,55.53
2024-05-09T11:18:35.081Z,52.99
2024-05-09T11:21:14.279Z,50.83
2024-05-09T11:23:41.282Z,54.39
2024-05-09T11:26:09.225Z,51.52
2024-05-09T11:31:10.214Z,48.77
2024-05-09T11:33:45.690Z,52.05
2024-05-09T11:36:12.947Z,55.68
2024-05-09T11:38:40.043Z,52.78
2024-05-09T11:41:06.855Z,54.37
2024-05-09T11:43:39.654Z,54.87
2024-05-09T11:46:06.506Z,52.59
2024-05-09T11:48:36.826Z,52.73
2024-05-09T11:51:03.749Z,54.57
2024-05-09T11:53:30.393Z,54.72
2024-05-09T11:55:57.048Z,55.59
2024-05-09T11:58:23.789Z,54.09
2024-05-09T12:00:50.690Z,56.36
2024-05-09T12:03:17.462Z,55.11
2024-05-09T12:05:44.395Z,58.97
2024-05-09T12:08:11.207Z,58.43
2024-05-09T12:10:38.094Z,58.42
2024-05-09T12:13:06.795Z,57.13
2024-05-09T12:15:37.455Z,58.36
2024-05-09T12:18:06.039Z,58.07
2024-05-09T12:20:37.629Z,56.70
2024-05-09T12:23:07.163Z,58.28
2024-05-09T12:25:36.147Z,59.33
2024-05-09T12:28:03.049Z,57.35
2024-05-09T12:30:36.582Z,58.12
2024-05-09T12:33:08.614Z,60.62
2024-05-09T12:35:35.720Z,58.77
2024-05-09T12:38:02.817Z,59.51
2024-05-09T12:40:36.410Z,58.52
2024-05-09T12:43:07.429Z,60.32
2024-05-09T12:45:35.349Z,61.63
2024-05-09T12:48:02.351Z,58.22
2024-05-09T12:50:33.253Z,57.71
2024-05-09T12:53:02.349Z,60.37
2024-05-09T12:55:33.457Z,56.44
2024-05-09T12:58:07.007Z,59.15
2024-05-09T13:00:34.569Z,57.40
2024-05-09T13:03:01.679Z,57.49
2024-05-09T13:05:29.042Z,57.94
2024-05-09T13:07:56.849Z,58.61
2024-05-09T13:10:31.107Z,58.65
2024-05-09T13:13:01.037Z,59.11
2024-05-09T13:15:28.664Z,60.13
2024-05-09T13:17:58.330Z,58.17
2024-05-09T13:20:32.774Z,58.63
2024-05-09T13:23:02.351Z,57.97
2024-05-09T13:25:29.150Z,58.75
2024-05-09T13:27:56.883Z,59.01
2024-05-09T13:30:29.834Z,59.61
2024-05-09T13:33:05.899Z,58.80
2024-05-09T13:35:34.900Z,55.71
2024-05-09T13:38:02.834Z,58.48
2024-05-09T13:40:33.919Z,56.74
2024-05-09T13:43:03.567Z,57.51
2024-05-09T13:45:30.496Z,61.14
2024-05-09T13:47:58.581Z,59.17
2024-05-09T13:50:33.257Z,59.54
2024-05-09T13:53:02.890Z,60.49
2024-05-09T13:55:29.619Z,61.87
2024-05-09T13:57:56.749Z,61.42
2024-05-09T14:00:37.799Z,61.66
2024-05-09T14:03:10.809Z,61.91
2024-05-09T14:05:37.797Z,65.10
2024-05-09T14:08:04.884Z,63.22
2024-05-09T14:10:32.515Z,65.11
2024-05-09T14:13:00.753Z,63.67
2024-05-09T14:15:27.811Z,62.59
2024-05-09T14:17:55.426Z,64.30
2024-05-09T14:20:30.509Z,61.65
2024-05-09T14:22:59.774Z,63.03
2024-05-09T14:25:32.166Z,63.14
2024-05-09T14:27:59.978Z,61.50
2024-05-09T14:30:34.735Z,60.82
2024-05-09T14:33:06.076Z,62.73
2024-05-09T14:35:33.826Z,63.38
2024-05-09T14:38:00.608Z,61.62
2024-05-09T14:40:37.185Z,63.66
2024-05-09T14:43:09.873Z,63.81
2024-05-09T14:45:36.801Z,63.93
2024-05-09T14:48:04.160Z,62.95
2024-05-09T14:50:36.233Z,65.88
2024-05-09T14:53:06.747Z,61.93
2024-05-09T14:55:39.658Z,62.63
2024-05-09T14:58:07.906Z,60.17
2024-05-09T15:00:41.670Z,57.37
2024-05-09T15:03:11.653Z,55.82
2024-05-09T15:05:38.456Z,55.69
2024-05-09T15:08:07.312Z,60.32
2024-05-09T15:10:36.324Z,58.98
2024-05-09T15:13:04.460Z,60.77
2024-05-09T15:15:31.430Z,62.03
2024-05-09T15:17:58.923Z,62.16
2024-05-09T15:20:33.104Z,62.23
2024-05-09T15:23:02.636Z,60.11
2024-05-09T15:25:29.593Z,60.13
2024-05-09T15:27:56.538Z,59.32
2024-05-09T15:30:30.544Z,60.76
2024-05-09T15:32:59.967Z,62.50
2024-05-09T15:35:26.858Z,62.95
2024-05-09T15:37:53.558Z,62.82
2024-05-09T15:40:30.465Z,63.20
2024-05-09T15:43:04.615Z,63.31
2024-05-09T15:45:31.960Z,64.05
2024-05-09T15:47:59.313Z,63.61
2024-05-09T15:50:35.784Z,64.04
2024-05-09T15:53:06.843Z,65.55
2024-05-09T15:55:34.712Z,65.08
2024-05-09T15:58:02.771Z,64.44
2024-05-09T16:00:37.409Z,62.92
2024-05-09T16:03:07.937Z,58.82
2024-05-09T16:05:34.899Z,55.33
2024-05-09T16:08:01.908Z,55.17
2024-05-09T16:10:32.761Z,51.72
2024-05-09T16:13:01.811Z,53.08
2024-05-09T16:15:28.980Z,54.14
2024-05-09T16:17:56.240Z,51.74
2024-05-09T16:20:34.258Z,52.45
2024-05-09T16:23:06.457Z,54.33
2024-05-09T16:25:33.403Z,54.33
2024-05-09T16:28:00.288Z,58.48
2024-05-09T16:30:31.940Z,56.15
2024-05-09T16:33:03.034Z,58.27
2024-05-09T16:35:30.094Z,58.28
2024-05-09T16:37:57.241Z,59.81
2024-05-09T16:40:33.169Z,59.32
2024-05-09T16:43:04.868Z,60.37
2024-05-09T16:45:31.951Z,60.02
2024-05-09T16:48:00.257Z,60.57
2024-05-09T16:50:32.530Z,60.07
2024-05-09T16:53:01.961Z,61.04
2024-05-09T16:55:28.942Z,62.36
2024-05-09T16:57:56.833Z,62.15
2024-05-09T17:00:34.985Z,63.33
2024-05-09T17:03:07.926Z,62.65
2024-05-09T17:05:35.741Z,63.20
2024-05-09T17:08:03.177Z,63.86
2024-05-09T17:10:33.667Z,64.66
2024-05-09T17:13:03.547Z,63.82
2024-05-09T17:15:32.495Z,62.54
2024-05-09T17:18:02.333Z,63.51
2024-05-09T17:20:34.139Z,63.59
2024-05-09T17:23:05.135Z,63.46
2024-05-09T17:25:32.680Z,62.95
2024-05-09T17:28:06.416Z,65.38
2024-05-09T17:30:36.871Z,64.63
2024-05-09T17:33:06.616Z,66.25
2024-05-09T17:35:33.645Z,64.46
2024-05-09T17:38:01.686Z,65.70
2024-05-09T17:40:33.566Z,64.97
2024-05-09T17:43:03.752Z,65.88
2024-05-09T17:45:31.060Z,67.26
2024-05-09T17:47:58.394Z,66.26
2024-05-09T17:50:31.591Z,67.49
2024-05-09T17:53:02.679Z,69.27
2024-05-09T17:55:29.672Z,69.50
2024-05-09T17:57:56.660Z,71.88
2024-05-09T18:00:33.359Z,71.96
2024-05-09T18:03:05.855Z,71.80
2024-05-09T18:05:32.963Z,73.25
2024-05-09T18:08:00.013Z,74.65
2024-05-09T18:10:33.729Z,74.90
2024-05-09T18:13:05.455Z,76.20
2024-05-09T18:15:42.102Z,75.59
2024-05-09T18:18:10.701Z,76.29
2024-05-09T18:20:43.712Z,75.87
2024-05-09T18:23:14.632Z,76.76
2024-05-09T18:25:42.682Z,77.05
2024-05-09T18:28:09.994Z,77.81
2024-05-09T18:30:37.530Z,78.28
2024-05-09T18:33:06.806Z,79.33
2024-05-09T18:35:34.992Z,80.49
2024-05-09T18:38:02.058Z,80.92
2024-05-09T18:40:34.162Z,81.52
2024-05-09T18:43:05.637Z,81.85
2024-05-09T18:45:33.727Z,82.45
2024-05-09T18:48:00.849Z,85.19
2024-05-09T18:50:35.083Z,83.97
2024-05-09T18:53:13.145Z,84.02
2024-05-09T18:55:41.600Z,86.12
2024-05-09T18:58:08.485Z,85.47
2024-05-09T19:00:38.523Z,87.34
2024-05-09T19:03:09.864Z,87.53
2024-05-09T19:05:39.193Z,87.85
2024-05-09T19:08:07.457Z,88.12
2024-05-09T19:10:35.746Z,88.19
2024-05-09T19:13:08.068Z,90.28
2024-05-09T19:15:38.200Z,88.86
2024-05-09T19:18:05.684Z,89.48
2024-05-09T19:20:34.968Z,90.75
2024-05-09T19:23:03.349Z,91.00
2024-05-09T19:25:30.286Z,92.74
2024-05-09T19:27:57.014Z,93.11
2024-05-09T19:30:32.877Z,93.83
2024-05-09T19:33:05.968Z,95.83
2024-05-09T19:35:33.072Z,95.26
2024-05-09T19:38:00.010Z,95.66
2024-05-09T19:40:31.444Z,96.22
2024-05-09T19:43:01.450Z,98.40
2024-05-09T19:45:28.951Z,97.44
2024-05-09T19:47:56.250Z,97.39
2024-05-09T19:50:31.709Z,97.84
2024-05-09T19:53:06.065Z,99.65
2024-05-09T19:55:33.215Z,99.88
2024-05-09T19:58:01.638Z,100.00
2024-05-09T20:00:35.676Z,100.00
2024-05-09T20:03:04.258Z,100.00
2024-05-09T20:05:31.521Z,100.00
2024-05-09T20:07:58.456Z,100.00
2024-05-09T20:10:31.407Z,100.00
2024-05-09T20:13:00.271Z,100.00
2024-05-09T20:15:27.302Z,100.00
2024-05-09T20:17:54.629Z,100.00
2024-05-09T20:20:32.156Z,100.00
2024-05-09T20:23:04.108Z,100.00
2024-05-09T20:25:30.788Z,100.00
2024-05-09T20:27:57.633Z,100.00
2024-05-09T20:30:28.952Z,100.00
2024-05-09T20:32:59.694Z,100.00
2024-05-09T20:35:26.760Z,100.00
2024-05-09T20:37:53.720Z,100.00
2024-05-09T20:40:28.374Z,100.00
2024-05-09T20:42:59.278Z,100.00
2024-05-09T20:45:26.048Z,100.00
2024-05-09T20:47:52.840Z,100.00
2024-05-09T20:50:28.298Z,100.00
2024-05-09T20:53:02.767Z,100.00
2024-05-09T20:55:30.152Z,100.00
2024-05-09T20:57:57.433Z,100.00
2024-05-09T21:00:33.802Z,100.00
2024-05-09T21:03:06.511Z,100.00
2024-05-09T21:05:34.394Z,100.00
2024-05-09T21:08:01.607Z,100.00
2024-05-09T21:10:32.686Z,100.00
2024-05-09T21:13:00.968Z,100.00
2024-05-09T21:15:27.884Z,100.00
2024-05-09T21:17:54.610Z,100.00
2024-05-09T21:20:28.267Z,100.00
2024-05-09T21:22:58.398Z,100.00
2024-05-09T21:25:25.370Z,100.00
2024-05-09T21:27:52.334Z,100.00
2024-05-09T21:30:28.438Z,100.00
2024-05-09T21:33:05.263Z,100.00
2024-05-09T21:35:32.108Z,100.00
2024-05-09T21:37:58.778Z,100.00
2024-05-09T21:40:31.668Z,100.00
2024-05-09T21:43:01.768Z,100.00
2024-05-09T21:45:28.521Z,100.00
2024-05-09T21:47:55.395Z,100.00
2024-05-09T21:50:28.756Z,100.00
2024-05-09T21:53:03.378Z,100.00
2024-05-09T21:55:30.223Z,100.00
2024-05-09T21:57:57.229Z,100.00
2024-05-09T22:00:32.094Z,100.00
2024-05-09T22:03:03.483Z,100.00
2024-05-09T22:05:30.859Z,100.00
2024-05-09T22:07:57.687Z,100.00
2024-05-09T22:10:30.983Z,100.00
2024-05-09T22:13:01.267Z,100.00
2024-05-09T22:15:28.146Z,100.00
2024-05-09T22:17:56.332Z,100.00
2024-05-09T22:20:32.843Z,100.00
2024-05-09T22:23:04.231Z,100.00
2024-05-09T22:25:32.124Z,100.00
2024-05-09T22:27:59.511Z,100.00
2024-05-09T22:30:33.748Z,100.00
2024-05-09T22:33:05.210Z,100.00
2024-05-09T22:35:32.132Z,100.00
2024-05-09T22:37:59.012Z,100.00
2024-05-09T22:40:37.900Z,100.00
2024-05-09T22:43:12.581Z,100.00
2024-05-09T22:45:39.529Z,100.00
2024-05-09T22:48:07.540Z,100.00
2024-05-09T22:50:34.388Z,100.00
2024-05-09T22:53:01.347Z,100.00
2024-05-09T22:55:28.206Z,100.00
2024-05-09T22:57:55.078Z,100.00
2024-05-09T23:00:29.462Z,100.00
2024-05-09T23:03:02.469Z,100.00
2024-05-09T23:05:29.793Z,100.00
2024-05-09T23:07:56.825Z,100.00
2024-05-09T23:10:31.462Z,100.00
2024-05-09T23:13:02.684Z,100.00
2024-05-09T23:15:29.728Z,100.00
2024-05-09T23:17:57.431Z,100.00
2024-05-09T23:22:54.147Z,100.00
2024-05-09T23:25:20.813Z,100.00
2024-05-09T23:27:47.631Z,100.00
2024-05-09T23:30:25.832Z,100.00
2024-05-09T23:33:00.443Z,100.00
2024-05-09T23:35:27.193Z,100.00
2024-05-09T23:37:53.862Z,100.00
2024-05-09T23:40:23.299Z,100.00
2024-05-09T23:42:50.726Z,100.00
2024-05-09T23:45:17.395Z,100.00
2024-05-09T23:47:44.271Z,100.00
2024-05-09T23:50:16.859Z,100.00
2024-05-09T23:52:50.313Z,100.00
2024-05-09T23:55:17.112Z,100.00
2024-05-09T23:57:43.896Z,100.00
